sensor_id;sensor_type;location;lat;lon;timestamp;P1;durP1;ratioP1;P2;durP2;ratioP2
23888;SDS011;12125;40.102;18.326;2022-10-16T00:01:22;25.60;;;19.05;;
23888;SDS011;12125;40.102;18.326;2022-10-16T00:03:49;25.58;;;19.83;;
23888;SDS011;12125;40.102;18.326;2022-10-16T00:06:16;21.55;;;18.00;;
23888;SDS011;12125;40.102;18.326;2022-10-16T00:08:43;22.58;;;17.08;;
23888;SDS011;12125;40.102;18.326;2022-10-16T00:11:12;20.27;;;16.25;;
23888;SDS011;12125;40.102;18.326;2022-10-16T00:13:39;20.38;;;17.77;;
23888;SDS011;12125;40.102;18.326;2022-10-16T00:16:06;26.90;;;17.20;;
23888;SDS011;12125;40.102;18.326;2022-10-16T00:18:33;18.63;;;16.27;;
23888;SDS011;12125;40.102;18.326;2022-10-16T00:21:04;23.25;;;17.52;;
23888;SDS011;12125;40.102;18.326;2022-10-16T00:23:31;24.10;;;18.35;;
23888;SDS011;12125;40.102;18.326;2022-10-16T00:25:58;19.75;;;16.98;;
23888;SDS011;12125;40.102;18.326;2022-10-16T00:28:25;21.33;;;16.63;;
23888;SDS011;12125;40.102;18.326;2022-10-16T00:30:51;21.05;;;17.42;;
23888;SDS011;12125;40.102;18.326;2022-10-16T00:33:18;23.08;;;18.35;;
23888;SDS011;12125;40.102;18.326;2022-10-16T00:35:45;22.55;;;18.73;;
23888;SDS011;12125;40.102;18.326;2022-10-16T00:38:12;33.00;;;16.38;;
23888;SDS011;12125;40.102;18.326;2022-10-16T00:40:38;21.48;;;16.73;;
23888;SDS011;12125;40.102;18.326;2022-10-16T00:43:31;21.08;;;17.70;;
23888;SDS011;12125;40.102;18.326;2022-10-16T00:45:59;21.83;;;17.35;;
23888;SDS011;12125;40.102;18.326;2022-10-16T00:48:26;25.20;;;18.30;;
23888;SDS011;12125;40.102;18.326;2022-10-16T00:50:53;21.48;;;17.27;;
23888;SDS011;12125;40.102;18.326;2022-10-16T00:53:20;21.95;;;17.60;;
23888;SDS011;12125;40.102;18.326;2022-10-16T00:55:47;25.73;;;18.08;;
23888;SDS011;12125;40.102;18.326;2022-10-16T00:58:14;21.67;;;17.27;;
23888;SDS011;12125;40.102;18.326;2022-10-16T01:00:41;25.35;;;20.25;;
23888;SDS011;12125;40.102;18.326;2022-10-16T01:03:31;21.92;;;16.95;;
23888;SDS011;12125;40.102;18.326;2022-10-16T01:14:06;22.13;;;18.30;;
23888;SDS011;12125;40.102;18.326;2022-10-16T01:16:38;21.85;;;18.67;;
23888;SDS011;12125;40.102;18.326;2022-10-16T01:21:35;25.58;;;19.55;;
23888;SDS011;12125;40.102;18.326;2022-10-16T01:24:06;26.40;;;19.17;;
23888;SDS011;12125;40.102;18.326;2022-10-16T01:29:20;28.85;;;19.83;;
23888;SDS011;12125;40.102;18.326;2022-10-16T01:31:52;27.30;;;21.10;;
23888;SDS011;12125;40.102;18.326;2022-10-16T01:34:22;27.73;;;21.08;;
23888;SDS011;12125;40.102;18.326;2022-10-16T01:36:52;29.20;;;22.48;;
23888;SDS011;12125;40.102;18.326;2022-10-16T01:39:22;27.67;;;21.92;;
23888;SDS011;12125;40.102;18.326;2022-10-16T01:41:51;32.97;;;24.73;;
23888;SDS011;12125;40.102;18.326;2022-10-16T01:44:21;33.67;;;25.45;;
23888;SDS011;12125;40.102;18.326;2022-10-16T01:46:50;32.55;;;23.33;;
23888;SDS011;12125;40.102;18.326;2022-10-16T01:49:18;31.48;;;23.95;;
23888;SDS011;12125;40.102;18.326;2022-10-16T01:51:45;35.25;;;25.70;;
23888;SDS011;12125;40.102;18.326;2022-10-16T01:54:13;35.55;;;25.92;;
23888;SDS011;12125;40.102;18.326;2022-10-16T01:56:41;37.75;;;25.38;;
23888;SDS011;12125;40.102;18.326;2022-10-16T01:59:15;42.13;;;25.65;;
23888;SDS011;12125;40.102;18.326;2022-10-16T02:01:44;33.83;;;26.17;;
23888;SDS011;12125;40.102;18.326;2022-10-16T02:04:15;33.20;;;24.55;;
23888;SDS011;12125;40.102;18.326;2022-10-16T02:06:42;36.55;;;25.77;;
23888;SDS011;12125;40.102;18.326;2022-10-16T02:09:09;33.83;;;26.00;;
23888;SDS011;12125;40.102;18.326;2022-10-16T02:11:35;33.97;;;25.70;;
23888;SDS011;12125;40.102;18.326;2022-10-16T02:14:03;29.27;;;23.05;;
23888;SDS011;12125;40.102;18.326;2022-10-16T02:16:34;33.67;;;24.80;;
23888;SDS011;12125;40.102;18.326;2022-10-16T02:19:01;43.88;;;24.60;;
23888;SDS011;12125;40.102;18.326;2022-10-16T02:21:29;35.25;;;25.85;;
23888;SDS011;12125;40.102;18.326;2022-10-16T02:26:42;35.10;;;24.83;;
23888;SDS011;12125;40.102;18.326;2022-10-16T02:29:10;39.40;;;27.08;;
23888;SDS011;12125;40.102;18.326;2022-10-16T02:31:40;31.55;;;22.73;;
23888;SDS011;12125;40.102;18.326;2022-10-16T02:34:08;31.90;;;24.52;;
23888;SDS011;12125;40.102;18.326;2022-10-16T02:36:37;33.33;;;24.67;;
23888;SDS011;12125;40.102;18.326;2022-10-16T02:39:04;34.53;;;24.88;;
23888;SDS011;12125;40.102;18.326;2022-10-16T02:41:31;39.22;;;27.30;;
23888;SDS011;12125;40.102;18.326;2022-10-16T02:43:58;37.13;;;26.38;;
23888;SDS011;12125;40.102;18.326;2022-10-16T02:46:24;38.08;;;27.02;;
23888;SDS011;12125;40.102;18.326;2022-10-16T02:48:51;37.20;;;28.60;;
23888;SDS011;12125;40.102;18.326;2022-10-16T02:51:17;41.72;;;28.52;;
23888;SDS011;12125;40.102;18.326;2022-10-16T02:53:44;29.73;;;24.20;;
23888;SDS011;12125;40.102;18.326;2022-10-16T02:56:11;39.92;;;27.98;;
23888;SDS011;12125;40.102;18.326;2022-10-16T02:58:37;35.70;;;27.00;;
23888;SDS011;12125;40.102;18.326;2022-10-16T03:01:03;29.40;;;23.05;;
23888;SDS011;12125;40.102;18.326;2022-10-16T03:03:30;32.92;;;24.52;;
23888;SDS011;12125;40.102;18.326;2022-10-16T03:05:57;34.33;;;23.90;;
23888;SDS011;12125;40.102;18.326;2022-10-16T03:08:23;29.30;;;22.60;;
23888;SDS011;12125;40.102;18.326;2022-10-16T03:10:51;29.85;;;23.30;;
23888;SDS011;12125;40.102;18.326;2022-10-16T03:13:17;33.92;;;25.40;;
23888;SDS011;12125;40.102;18.326;2022-10-16T03:15:45;28.25;;;22.30;;
23888;SDS011;12125;40.102;18.326;2022-10-16T03:18:12;33.03;;;22.95;;
23888;SDS011;12125;40.102;18.326;2022-10-16T03:20:39;30.92;;;22.02;;
23888;SDS011;12125;40.102;18.326;2022-10-16T03:23:06;32.20;;;24.83;;
23888;SDS011;12125;40.102;18.326;2022-10-16T03:25:33;33.25;;;24.45;;
23888;SDS011;12125;40.102;18.326;2022-10-16T03:28:00;35.05;;;25.48;;
23888;SDS011;12125;40.102;18.326;2022-10-16T03:30:27;35.40;;;24.90;;
23888;SDS011;12125;40.102;18.326;2022-10-16T03:32:53;36.30;;;26.17;;
23888;SDS011;12125;40.102;18.326;2022-10-16T03:35:21;40.05;;;27.70;;
23888;SDS011;12125;40.102;18.326;2022-10-16T03:37:47;35.50;;;26.10;;
23888;SDS011;12125;40.102;18.326;2022-10-16T03:40:14;37.85;;;25.85;;
23888;SDS011;12125;40.102;18.326;2022-10-16T03:42:41;37.40;;;27.40;;
23888;SDS011;12125;40.102;18.326;2022-10-16T03:45:08;40.92;;;27.73;;
23888;SDS011;12125;40.102;18.326;2022-10-16T03:47:35;30.67;;;23.60;;
23888;SDS011;12125;40.102;18.326;2022-10-16T03:50:02;35.95;;;24.75;;
23888;SDS011;12125;40.102;18.326;2022-10-16T03:52:29;33.88;;;26.83;;
23888;SDS011;12125;40.102;18.326;2022-10-16T03:54:55;49.90;;;29.48;;
23888;SDS011;12125;40.102;18.326;2022-10-16T03:57:22;34.00;;;24.55;;
23888;SDS011;12125;40.102;18.326;2022-10-16T03:59:49;41.63;;;28.45;;
23888;SDS011;12125;40.102;18.326;2022-10-16T04:02:16;39.97;;;25.88;;
23888;SDS011;12125;40.102;18.326;2022-10-16T04:04:43;32.95;;;25.73;;
23888;SDS011;12125;40.102;18.326;2022-10-16T04:07:09;33.05;;;24.92;;
23888;SDS011;12125;40.102;18.326;2022-10-16T04:09:36;36.45;;;26.00;;
23888;SDS011;12125;40.102;18.326;2022-10-16T04:12:02;37.13;;;26.00;;
23888;SDS011;12125;40.102;18.326;2022-10-16T04:14:29;42.25;;;28.83;;
23888;SDS011;12125;40.102;18.326;2022-10-16T04:16:55;38.38;;;28.88;;
23888;SDS011;12125;40.102;18.326;2022-10-16T04:19:22;41.67;;;28.85;;
23888;SDS011;12125;40.102;18.326;2022-10-16T04:21:48;38.50;;;28.38;;
23888;SDS011;12125;40.102;18.326;2022-10-16T04:24:15;37.17;;;27.38;;
23888;SDS011;12125;40.102;18.326;2022-10-16T04:26:41;45.25;;;32.38;;
23888;SDS011;12125;40.102;18.326;2022-10-16T04:29:08;38.60;;;28.73;;
23888;SDS011;12125;40.102;18.326;2022-10-16T04:31:35;41.33;;;28.13;;
23888;SDS011;12125;40.102;18.326;2022-10-16T04:34:01;46.17;;;30.70;;
23888;SDS011;12125;40.102;18.326;2022-10-16T04:36:28;36.83;;;27.48;;
23888;SDS011;12125;40.102;18.326;2022-10-16T04:38:54;36.38;;;26.63;;
23888;SDS011;12125;40.102;18.326;2022-10-16T04:41:21;36.92;;;27.85;;
23888;SDS011;12125;40.102;18.326;2022-10-16T04:43:47;52.00;;;33.60;;
23888;SDS011;12125;40.102;18.326;2022-10-16T04:46:14;38.65;;;28.45;;
23888;SDS011;12125;40.102;18.326;2022-10-16T04:48:41;39.90;;;29.00;;
23888;SDS011;12125;40.102;18.326;2022-10-16T04:51:07;43.53;;;29.23;;
23888;SDS011;12125;40.102;18.326;2022-10-16T04:53:34;41.38;;;28.80;;
23888;SDS011;12125;40.102;18.326;2022-10-16T04:56:00;38.17;;;28.98;;
23888;SDS011;12125;40.102;18.326;2022-10-16T04:58:27;42.67;;;29.55;;
23888;SDS011;12125;40.102;18.326;2022-10-16T05:00:54;46.03;;;30.75;;
23888;SDS011;12125;40.102;18.326;2022-10-16T05:03:20;40.53;;;28.95;;
23888;SDS011;12125;40.102;18.326;2022-10-16T05:05:47;43.13;;;29.70;;
23888;SDS011;12125;40.102;18.326;2022-10-16T05:08:14;44.55;;;31.52;;
23888;SDS011;12125;40.102;18.326;2022-10-16T05:10:41;44.25;;;31.25;;
23888;SDS011;12125;40.102;18.326;2022-10-16T05:13:08;52.65;;;33.25;;
23888;SDS011;12125;40.102;18.326;2022-10-16T05:15:35;46.95;;;32.97;;
23888;SDS011;12125;40.102;18.326;2022-10-16T05:18:01;52.72;;;34.25;;
23888;SDS011;12125;40.102;18.326;2022-10-16T05:20:28;53.90;;;35.70;;
23888;SDS011;12125;40.102;18.326;2022-10-16T05:22:54;49.97;;;34.38;;
23888;SDS011;12125;40.102;18.326;2022-10-16T05:25:21;54.85;;;36.30;;
23888;SDS011;12125;40.102;18.326;2022-10-16T05:27:48;60.45;;;35.92;;
23888;SDS011;12125;40.102;18.326;2022-10-16T05:30:15;60.38;;;36.58;;
23888;SDS011;12125;40.102;18.326;2022-10-16T05:32:41;60.47;;;38.38;;
23888;SDS011;12125;40.102;18.326;2022-10-16T05:35:08;88.60;;;44.60;;
23888;SDS011;12125;40.102;18.326;2022-10-16T05:37:35;74.43;;;37.25;;
23888;SDS011;12125;40.102;18.326;2022-10-16T05:40:02;111.40;;;41.42;;
23888;SDS011;12125;40.102;18.326;2022-10-16T05:42:30;73.55;;;38.88;;
23888;SDS011;12125;40.102;18.326;2022-10-16T05:44:57;64.65;;;36.05;;
23888;SDS011;12125;40.102;18.326;2022-10-16T05:47:24;63.95;;;35.72;;
23888;SDS011;12125;40.102;18.326;2022-10-16T05:49:50;79.35;;;38.97;;
23888;SDS011;12125;40.102;18.326;2022-10-16T05:52:17;70.03;;;37.88;;
23888;SDS011;12125;40.102;18.326;2022-10-16T05:54:44;59.53;;;35.20;;
23888;SDS011;12125;40.102;18.326;2022-10-16T05:57:10;48.50;;;35.13;;
23888;SDS011;12125;40.102;18.326;2022-10-16T05:59:37;51.75;;;35.45;;
23888;SDS011;12125;40.102;18.326;2022-10-16T06:02:03;47.83;;;32.90;;
23888;SDS011;12125;40.102;18.326;2022-10-16T06:04:30;51.17;;;32.22;;
23888;SDS011;12125;40.102;18.326;2022-10-16T06:07:00;46.60;;;34.45;;
23888;SDS011;12125;40.102;18.326;2022-10-16T06:09:26;47.08;;;33.65;;
23888;SDS011;12125;40.102;18.326;2022-10-16T06:11:53;38.85;;;31.10;;
23888;SDS011;12125;40.102;18.326;2022-10-16T06:14:20;40.35;;;31.40;;
23888;SDS011;12125;40.102;18.326;2022-10-16T06:16:46;37.17;;;29.08;;
23888;SDS011;12125;40.102;18.326;2022-10-16T06:19:13;31.40;;;26.40;;
23888;SDS011;12125;40.102;18.326;2022-10-16T06:21:40;39.13;;;27.02;;
23888;SDS011;12125;40.102;18.326;2022-10-16T06:24:07;34.65;;;28.50;;
23888;SDS011;12125;40.102;18.326;2022-10-16T06:26:34;28.15;;;25.15;;
23888;SDS011;12125;40.102;18.326;2022-10-16T06:29:01;30.13;;;26.75;;
23888;SDS011;12125;40.102;18.326;2022-10-16T06:31:28;31.25;;;27.20;;
23888;SDS011;12125;40.102;18.326;2022-10-16T06:33:56;31.70;;;28.20;;
23888;SDS011;12125;40.102;18.326;2022-10-16T06:36:23;36.05;;;26.70;;
23888;SDS011;12125;40.102;18.326;2022-10-16T06:38:50;30.23;;;25.70;;
23888;SDS011;12125;40.102;18.326;2022-10-16T06:41:18;30.52;;;27.20;;
23888;SDS011;12125;40.102;18.326;2022-10-16T06:43:45;30.27;;;27.13;;
23888;SDS011;12125;40.102;18.326;2022-10-16T06:46:13;30.45;;;27.15;;
23888;SDS011;12125;40.102;18.326;2022-10-16T06:48:40;28.23;;;25.20;;
23888;SDS011;12125;40.102;18.326;2022-10-16T06:51:11;30.25;;;26.92;;
23888;SDS011;12125;40.102;18.326;2022-10-16T06:53:39;28.08;;;25.23;;
23888;SDS011;12125;40.102;18.326;2022-10-16T06:56:07;31.60;;;27.70;;
23888;SDS011;12125;40.102;18.326;2022-10-16T06:58:34;32.25;;;28.85;;
23888;SDS011;12125;40.102;18.326;2022-10-16T07:01:01;29.40;;;26.30;;
23888;SDS011;12125;40.102;18.326;2022-10-16T07:03:27;29.10;;;26.05;;
23888;SDS011;12125;40.102;18.326;2022-10-16T07:05:54;35.65;;;28.50;;
23888;SDS011;12125;40.102;18.326;2022-10-16T07:08:21;41.42;;;31.42;;
23888;SDS011;12125;40.102;18.326;2022-10-16T07:10:48;36.25;;;29.95;;
23888;SDS011;12125;40.102;18.326;2022-10-16T07:13:16;32.00;;;28.55;;
23888;SDS011;12125;40.102;18.326;2022-10-16T07:15:42;32.63;;;29.02;;
23888;SDS011;12125;40.102;18.326;2022-10-16T07:18:09;30.05;;;26.83;;
23888;SDS011;12125;40.102;18.326;2022-10-16T07:20:35;29.30;;;26.38;;
23888;SDS011;12125;40.102;18.326;2022-10-16T07:23:03;34.33;;;30.85;;
23888;SDS011;12125;40.102;18.326;2022-10-16T07:25:29;29.50;;;26.45;;
23888;SDS011;12125;40.102;18.326;2022-10-16T07:27:56;29.48;;;26.52;;
23888;SDS011;12125;40.102;18.326;2022-10-16T07:30:23;28.27;;;25.48;;
23888;SDS011;12125;40.102;18.326;2022-10-16T07:32:49;29.42;;;26.55;;
23888;SDS011;12125;40.102;18.326;2022-10-16T07:35:16;25.98;;;23.45;;
23888;SDS011;12125;40.102;18.326;2022-10-16T07:37:46;27.33;;;24.73;;
23888;SDS011;12125;40.102;18.326;2022-10-16T07:40:13;26.67;;;23.98;;
23888;SDS011;12125;40.102;18.326;2022-10-16T07:42:40;28.02;;;25.17;;
23888;SDS011;12125;40.102;18.326;2022-10-16T07:45:07;25.52;;;23.05;;
23888;SDS011;12125;40.102;18.326;2022-10-16T07:47:33;27.38;;;24.60;;
23888;SDS011;12125;40.102;18.326;2022-10-16T07:50:02;27.70;;;24.65;;
23888;SDS011;12125;40.102;18.326;2022-10-16T07:52:29;24.23;;;21.70;;
23888;SDS011;12125;40.102;18.326;2022-10-16T07:55:05;28.90;;;25.98;;
23888;SDS011;12125;40.102;18.326;2022-10-16T07:57:37;27.70;;;24.98;;
23888;SDS011;12125;40.102;18.326;2022-10-16T08:00:05;27.63;;;24.85;;
23888;SDS011;12125;40.102;18.326;2022-10-16T08:02:37;29.17;;;26.23;;
23888;SDS011;12125;40.102;18.326;2022-10-16T08:05:04;25.58;;;22.85;;
23888;SDS011;12125;40.102;18.326;2022-10-16T08:07:31;25.05;;;22.45;;
23888;SDS011;12125;40.102;18.326;2022-10-16T08:10:00;25.17;;;22.67;;
23888;SDS011;12125;40.102;18.326;2022-10-16T08:12:29;26.83;;;23.95;;
23888;SDS011;12125;40.102;18.326;2022-10-16T08:14:55;26.85;;;23.52;;
23888;SDS011;12125;40.102;18.326;2022-10-16T08:17:22;27.00;;;23.15;;
23888;SDS011;12125;40.102;18.326;2022-10-16T08:19:48;32.30;;;22.02;;
23888;SDS011;12125;40.102;18.326;2022-10-16T08:22:15;21.10;;;18.45;;
23888;SDS011;12125;40.102;18.326;2022-10-16T08:24:43;26.00;;;21.77;;
23888;SDS011;12125;40.102;18.326;2022-10-16T08:27:10;24.52;;;19.95;;
23888;SDS011;12125;40.102;18.326;2022-10-16T08:29:38;20.60;;;18.42;;
23888;SDS011;12125;40.102;18.326;2022-10-16T08:32:05;25.58;;;19.58;;
23888;SDS011;12125;40.102;18.326;2022-10-16T08:34:32;27.98;;;23.30;;
23888;SDS011;12125;40.102;18.326;2022-10-16T08:36:59;29.80;;;22.73;;
23888;SDS011;12125;40.102;18.326;2022-10-16T08:39:26;26.33;;;20.23;;
23888;SDS011;12125;40.102;18.326;2022-10-16T08:44:57;23.98;;;21.48;;
23888;SDS011;12125;40.102;18.326;2022-10-16T08:47:38;23.40;;;20.48;;
23888;SDS011;12125;40.102;18.326;2022-10-16T08:50:10;23.52;;;20.05;;
23888;SDS011;12125;40.102;18.326;2022-10-16T08:52:38;32.97;;;24.63;;
23888;SDS011;12125;40.102;18.326;2022-10-16T08:55:06;27.92;;;23.50;;
23888;SDS011;12125;40.102;18.326;2022-10-16T08:57:33;22.13;;;19.45;;
23888;SDS011;12125;40.102;18.326;2022-10-16T09:00:00;21.73;;;19.17;;
23888;SDS011;12125;40.102;18.326;2022-10-16T09:02:37;24.27;;;21.02;;
23888;SDS011;12125;40.102;18.326;2022-10-16T09:15:35;39.17;;;29.30;;
23888;SDS011;12125;40.102;18.326;2022-10-16T09:18:21;18.90;;;16.83;;
23888;SDS011;12125;40.102;18.326;2022-10-16T09:20:58;29.30;;;21.55;;
23888;SDS011;12125;40.102;18.326;2022-10-16T09:23:32;19.67;;;17.30;;
23888;SDS011;12125;40.102;18.326;2022-10-16T09:26:01;20.05;;;16.23;;
23888;SDS011;12125;40.102;18.326;2022-10-16T09:28:29;14.88;;;13.32;;
23888;SDS011;12125;40.102;18.326;2022-10-16T09:30:55;19.50;;;15.55;;
23888;SDS011;12125;40.102;18.326;2022-10-16T09:33:28;16.83;;;13.02;;
23888;SDS011;12125;40.102;18.326;2022-10-16T09:35:56;18.98;;;12.73;;
23888;SDS011;12125;40.102;18.326;2022-10-16T09:38:31;15.77;;;13.23;;
23888;SDS011;12125;40.102;18.326;2022-10-16T09:40:58;15.35;;;13.68;;
23888;SDS011;12125;40.102;18.326;2022-10-16T09:45:58;15.57;;;13.07;;
23888;SDS011;12125;40.102;18.326;2022-10-16T09:48:28;16.15;;;10.75;;
23888;SDS011;12125;40.102;18.326;2022-10-16T09:50:58;13.40;;;10.87;;
23888;SDS011;12125;40.102;18.326;2022-10-16T09:53:42;13.73;;;11.55;;
23888;SDS011;12125;40.102;18.326;2022-10-16T09:56:10;13.25;;;11.13;;
23888;SDS011;12125;40.102;18.326;2022-10-16T09:58:43;11.98;;;10.07;;
23888;SDS011;12125;40.102;18.326;2022-10-16T10:01:11;14.27;;;10.82;;
23888;SDS011;12125;40.102;18.326;2022-10-16T10:03:40;21.73;;;16.42;;
23888;SDS011;12125;40.102;18.326;2022-10-16T10:08:55;12.90;;;11.18;;
23888;SDS011;12125;40.102;18.326;2022-10-16T10:11:37;15.70;;;12.18;;
23888;SDS011;12125;40.102;18.326;2022-10-16T10:14:05;19.50;;;11.07;;
23888;SDS011;12125;40.102;18.326;2022-10-16T10:16:33;13.82;;;12.38;;
23888;SDS011;12125;40.102;18.326;2022-10-16T10:19:00;13.50;;;11.88;;
23888;SDS011;12125;40.102;18.326;2022-10-16T10:21:27;24.23;;;18.13;;
23888;SDS011;12125;40.102;18.326;2022-10-16T10:23:56;17.58;;;13.95;;
23888;SDS011;12125;40.102;18.326;2022-10-16T10:26:24;13.68;;;12.00;;
23888;SDS011;12125;40.102;18.326;2022-10-16T10:36:43;20.33;;;15.68;;
23888;SDS011;12125;40.102;18.326;2022-10-16T10:47:31;23.15;;;19.55;;
23888;SDS011;12125;40.102;18.326;2022-10-16T10:50:07;21.33;;;16.83;;
23888;SDS011;12125;40.102;18.326;2022-10-16T10:55:15;16.60;;;13.43;;
23888;SDS011;12125;40.102;18.326;2022-10-16T11:08:30;15.95;;;12.43;;
23888;SDS011;12125;40.102;18.326;2022-10-16T11:11:00;16.52;;;13.57;;
23888;SDS011;12125;40.102;18.326;2022-10-16T11:15:58;15.85;;;13.20;;
23888;SDS011;12125;40.102;18.326;2022-10-16T11:18:40;14.18;;;12.68;;
23888;SDS011;12125;40.102;18.326;2022-10-16T11:21:11;15.98;;;14.07;;
23888;SDS011;12125;40.102;18.326;2022-10-16T11:23:41;22.00;;;16.70;;
23888;SDS011;12125;40.102;18.326;2022-10-16T11:26:15;14.10;;;12.35;;
23888;SDS011;12125;40.102;18.326;2022-10-16T11:28:48;18.02;;;15.73;;
23888;SDS011;12125;40.102;18.326;2022-10-16T11:31:17;17.40;;;14.90;;
23888;SDS011;12125;40.102;18.326;2022-10-16T11:33:47;19.20;;;15.98;;
23888;SDS011;12125;40.102;18.326;2022-10-16T11:36:31;18.40;;;15.20;;
23888;SDS011;12125;40.102;18.326;2022-10-16T11:39:00;20.38;;;16.63;;
23888;SDS011;12125;40.102;18.326;2022-10-16T11:46:28;16.67;;;14.90;;
23888;SDS011;12125;40.102;18.326;2022-10-16T11:51:38;14.63;;;13.10;;
23888;SDS011;12125;40.102;18.326;2022-10-16T11:54:14;20.63;;;14.35;;
23888;SDS011;12125;40.102;18.326;2022-10-16T11:56:43;16.02;;;14.13;;
23888;SDS011;12125;40.102;18.326;2022-10-16T12:01:48;16.30;;;14.35;;
23888;SDS011;12125;40.102;18.326;2022-10-16T12:06:52;16.98;;;14.82;;
23888;SDS011;12125;40.102;18.326;2022-10-16T12:09:27;16.40;;;14.70;;
23888;SDS011;12125;40.102;18.326;2022-10-16T12:11:55;16.20;;;14.50;;
23888;SDS011;12125;40.102;18.326;2022-10-16T12:17:03;19.05;;;15.32;;
23888;SDS011;12125;40.102;18.326;2022-10-16T12:19:32;19.98;;;14.75;;
23888;SDS011;12125;40.102;18.326;2022-10-16T12:22:00;17.42;;;15.68;;
23888;SDS011;12125;40.102;18.326;2022-10-16T12:26:54;17.17;;;14.63;;
23888;SDS011;12125;40.102;18.326;2022-10-16T12:29:35;17.15;;;15.35;;
23888;SDS011;12125;40.102;18.326;2022-10-16T12:32:03;18.15;;;15.82;;
23888;SDS011;12125;40.102;18.326;2022-10-16T12:34:36;18.95;;;16.88;;
23888;SDS011;12125;40.102;18.326;2022-10-16T12:37:22;17.98;;;16.15;;
23888;SDS011;12125;40.102;18.326;2022-10-16T12:39:50;19.63;;;17.63;;
23888;SDS011;12125;40.102;18.326;2022-10-16T12:44:54;23.17;;;16.63;;
23888;SDS011;12125;40.102;18.326;2022-10-16T12:47:22;20.35;;;18.17;;
23888;SDS011;12125;40.102;18.326;2022-10-16T12:49:51;19.23;;;17.13;;
23888;SDS011;12125;40.102;18.326;2022-10-16T12:52:25;18.75;;;15.70;;
23888;SDS011;12125;40.102;18.326;2022-10-16T12:54:55;17.85;;;16.05;;
23888;SDS011;12125;40.102;18.326;2022-10-16T13:00:07;19.05;;;16.52;;
23888;SDS011;12125;40.102;18.326;2022-10-16T13:02:48;22.40;;;16.75;;
23888;SDS011;12125;40.102;18.326;2022-10-16T13:10:40;21.65;;;16.88;;
23888;SDS011;12125;40.102;18.326;2022-10-16T13:16:02;19.83;;;16.55;;
23888;SDS011;12125;40.102;18.326;2022-10-16T13:23:48;17.15;;;14.40;;
23888;SDS011;12125;40.102;18.326;2022-10-16T13:29:00;16.45;;;14.70;;
23888;SDS011;12125;40.102;18.326;2022-10-16T13:31:27;14.52;;;13.02;;
23888;SDS011;12125;40.102;18.326;2022-10-16T13:33:55;13.32;;;11.95;;
23888;SDS011;12125;40.102;18.326;2022-10-16T13:36:25;13.73;;;12.25;;
23888;SDS011;12125;40.102;18.326;2022-10-16T13:39:00;11.65;;;10.52;;
23888;SDS011;12125;40.102;18.326;2022-10-16T13:41:26;13.30;;;9.82;;
23888;SDS011;12125;40.102;18.326;2022-10-16T13:43:56;12.88;;;8.80;;
23888;SDS011;12125;40.102;18.326;2022-10-16T13:46:24;12.40;;;8.40;;
23888;SDS011;12125;40.102;18.326;2022-10-16T13:48:58;9.95;;;7.80;;
23888;SDS011;12125;40.102;18.326;2022-10-16T13:51:25;8.95;;;7.32;;
23888;SDS011;12125;40.102;18.326;2022-10-16T13:53:56;7.68;;;6.93;;
23888;SDS011;12125;40.102;18.326;2022-10-16T13:56:27;7.05;;;6.32;;
23888;SDS011;12125;40.102;18.326;2022-10-16T13:58:58;7.32;;;6.43;;
23888;SDS011;12125;40.102;18.326;2022-10-16T14:04:02;9.68;;;6.38;;
23888;SDS011;12125;40.102;18.326;2022-10-16T14:06:30;6.00;;;5.40;;
23888;SDS011;12125;40.102;18.326;2022-10-16T14:11:27;7.25;;;5.97;;
23888;SDS011;12125;40.102;18.326;2022-10-16T14:13:54;8.98;;;6.72;;
23888;SDS011;12125;40.102;18.326;2022-10-16T14:16:22;7.32;;;6.43;;
23888;SDS011;12125;40.102;18.326;2022-10-16T14:18:53;8.73;;;6.53;;
23888;SDS011;12125;40.102;18.326;2022-10-16T14:21:21;8.25;;;6.25;;
23888;SDS011;12125;40.102;18.326;2022-10-16T14:23:49;7.00;;;6.30;;
23888;SDS011;12125;40.102;18.326;2022-10-16T14:26:17;7.22;;;6.05;;
23888;SDS011;12125;40.102;18.326;2022-10-16T14:28:44;7.43;;;6.57;;
23888;SDS011;12125;40.102;18.326;2022-10-16T14:31:30;6.38;;;5.85;;
23888;SDS011;12125;40.102;18.326;2022-10-16T14:33:57;7.25;;;6.60;;
23888;SDS011;12125;40.102;18.326;2022-10-16T14:36:24;8.27;;;6.40;;
23888;SDS011;12125;40.102;18.326;2022-10-16T14:38:56;10.85;;;6.75;;
23888;SDS011;12125;40.102;18.326;2022-10-16T14:41:24;7.80;;;6.57;;
23888;SDS011;12125;40.102;18.326;2022-10-16T14:43:55;7.35;;;6.75;;
23888;SDS011;12125;40.102;18.326;2022-10-16T14:46:23;6.88;;;6.20;;
23888;SDS011;12125;40.102;18.326;2022-10-16T14:48:59;7.10;;;6.40;;
23888;SDS011;12125;40.102;18.326;2022-10-16T14:51:27;7.93;;;6.60;;
23888;SDS011;12125;40.102;18.326;2022-10-16T14:53:53;6.93;;;6.32;;
23888;SDS011;12125;40.102;18.326;2022-10-16T14:56:24;6.97;;;6.38;;
23888;SDS011;12125;40.102;18.326;2022-10-16T14:58:51;10.40;;;6.83;;
23888;SDS011;12125;40.102;18.326;2022-10-16T15:01:18;9.05;;;7.18;;
23888;SDS011;12125;40.102;18.326;2022-10-16T15:03:45;13.80;;;7.90;;
23888;SDS011;12125;40.102;18.326;2022-10-16T15:06:13;9.27;;;7.32;;
23888;SDS011;12125;40.102;18.326;2022-10-16T15:08:40;9.52;;;6.75;;
23888;SDS011;12125;40.102;18.326;2022-10-16T15:11:11;9.73;;;7.57;;
23888;SDS011;12125;40.102;18.326;2022-10-16T15:13:39;8.27;;;7.05;;
23888;SDS011;12125;40.102;18.326;2022-10-16T15:16:08;8.57;;;7.18;;
23888;SDS011;12125;40.102;18.326;2022-10-16T15:18:36;10.85;;;7.68;;
23888;SDS011;12125;40.102;18.326;2022-10-16T15:21:03;8.07;;;7.22;;
23888;SDS011;12125;40.102;18.326;2022-10-16T15:23:31;8.75;;;7.85;;
23888;SDS011;12125;40.102;18.326;2022-10-16T15:25:57;8.45;;;7.65;;
23888;SDS011;12125;40.102;18.326;2022-10-16T15:28:25;11.65;;;8.20;;
23888;SDS011;12125;40.102;18.326;2022-10-16T15:30:53;10.15;;;8.30;;
23888;SDS011;12125;40.102;18.326;2022-10-16T15:33:20;10.73;;;7.72;;
23888;SDS011;12125;40.102;18.326;2022-10-16T15:35:48;8.20;;;7.40;;
23888;SDS011;12125;40.102;18.326;2022-10-16T15:38:16;8.15;;;6.47;;
23888;SDS011;12125;40.102;18.326;2022-10-16T15:40:43;11.80;;;7.25;;
23888;SDS011;12125;40.102;18.326;2022-10-16T15:43:10;19.40;;;8.43;;
23888;SDS011;12125;40.102;18.326;2022-10-16T15:45:37;8.57;;;7.70;;
23888;SDS011;12125;40.102;18.326;2022-10-16T15:48:03;11.40;;;8.15;;
23888;SDS011;12125;40.102;18.326;2022-10-16T15:50:31;10.52;;;8.77;;
23888;SDS011;12125;40.102;18.326;2022-10-16T15:53:01;8.93;;;8.13;;
23888;SDS011;12125;40.102;18.326;2022-10-16T15:55:36;10.48;;;8.10;;
23888;SDS011;12125;40.102;18.326;2022-10-16T15:58:09;9.25;;;8.38;;
23888;SDS011;12125;40.102;18.326;2022-10-16T16:00:36;9.50;;;8.50;;
23888;SDS011;12125;40.102;18.326;2022-10-16T16:03:03;9.73;;;8.73;;
23888;SDS011;12125;40.102;18.326;2022-10-16T16:05:30;9.38;;;7.85;;
23888;SDS011;12125;40.102;18.326;2022-10-16T16:07:59;9.20;;;8.30;;
23888;SDS011;12125;40.102;18.326;2022-10-16T16:10:25;11.20;;;10.05;;
23888;SDS011;12125;40.102;18.326;2022-10-16T16:12:51;10.63;;;8.95;;